sensor_id;sensor_type;location;lat;lon;timestamp;noise_LAeq;noise_LA_min;noise_LA_max;noise_LA01;noise_LA95
77361;Laerm;66427;51.798;10.954;2023-03-08T00:00:51;29.32;27.51;35.87;;
77361;Laerm;66427;51.798;10.954;2023-03-08T00:03:17;31.22;28.17;41.39;;
77361;Laerm;66427;51.798;10.954;2023-03-08T00:05:43;48.98;28.17;66.40;;
77361;Laerm;66427;51.798;10.954;2023-03-08T00:08:09;36.29;28.17;59.67;;
77361;Laerm;66427;51.798;10.954;2023-03-08T00:10:35;35.85;28.36;56.70;;
77361;Laerm;66427;51.798;10.954;2023-03-08T00:13:01;30.43;27.98;39.46;;
77361;Laerm;66427;51.798;10.954;2023-03-08T00:15:27;29.48;27.96;34.30;;
77361;Laerm;66427;51.798;10.954;2023-03-08T00:17:52;29.42;27.54;40.44;;
77361;Laerm;66427;51.798;10.954;2023-03-08T00:20:19;28.23;27.48;29.19;;
77361;Laerm;66427;51.798;10.954;2023-03-08T00:22:44;30.85;27.70;44.81;;
77361;Laerm;66427;51.798;10.954;2023-03-08T00:25:10;31.40;28.43;39.31;;
77361;Laerm;66427;51.798;10.954;2023-03-08T00:27:36;30.34;27.65;36.55;;
77361;Laerm;66427;51.798;10.954;2023-03-08T00:30:05;29.02;27.64;37.75;;
77361;Laerm;66427;51.798;10.954;2023-03-08T00:32:31;31.55;27.71;40.75;;
77361;Laerm;66427;51.798;10.954;2023-03-08T00:34:57;30.55;27.66;38.67;;
77361;Laerm;66427;51.798;10.954;2023-03-08T00:37:22;30.37;27.59;43.74;;
77361;Laerm;66427;51.798;10.954;2023-03-08T00:39:51;29.72;27.60;36.84;;
77361;Laerm;66427;51.798;10.954;2023-03-08T00:42:18;30.79;27.69;37.98;;
77361;Laerm;66427;51.798;10.954;2023-03-08T00:44:44;30.04;27.53;39.26;;
77361;Laerm;66427;51.798;10.954;2023-03-08T00:47:10;31.06;27.66;42.30;;
77361;Laerm;66427;51.798;10.954;2023-03-08T00:49:35;30.54;27.61;39.43;;
77361;Laerm;66427;51.798;10.954;2023-03-08T00:52:01;30.96;27.59;38.87;;
77361;Laerm;66427;51.798;10.954;2023-03-08T00:54:28;31.44;27.45;42.67;;
77361;Laerm;66427;51.798;10.954;2023-03-08T00:56:54;30.47;27.67;39.40;;
77361;Laerm;66427;51.798;10.954;2023-03-08T00:59:20;29.87;27.34;38.69;;
77361;Laerm;66427;51.798;10.954;2023-03-08T01:01:45;30.31;27.44;39.52;;
77361;Laerm;66427;51.798;10.954;2023-03-08T01:04:11;31.50;27.27;39.65;;
77361;Laerm;66427;51.798;10.954;2023-03-08T01:06:37;30.95;27.16;40.76;;
77361;Laerm;66427;51.798;10.954;2023-03-08T01:09:03;29.37;27.38;39.65;;
77361;Laerm;66427;51.798;10.954;2023-03-08T01:11:29;30.62;27.34;40.79;;
77361;Laerm;66427;51.798;10.954;2023-03-08T01:13:54;30.87;27.48;42.75;;
77361;Laerm;66427;51.798;10.954;2023-03-08T01:16:24;31.15;27.72;40.18;;
77361;Laerm;66427;51.798;10.954;2023-03-08T01:18:52;30.92;28.36;40.33;;
77361;Laerm;66427;51.798;10.954;2023-03-08T01:21:18;28.60;27.45;36.05;;
77361;Laerm;66427;51.798;10.954;2023-03-08T01:23:44;32.91;27.23;42.08;;
77361;Laerm;66427;51.798;10.954;2023-03-08T01:26:11;31.52;28.45;40.10;;
77361;Laerm;66427;51.798;10.954;2023-03-08T01:28:37;32.06;27.62;42.16;;
77361;Laerm;66427;51.798;10.954;2023-03-08T01:31:03;30.55;27.64;46.24;;
77361;Laerm;66427;51.798;10.954;2023-03-08T01:33:29;31.14;27.54;46.47;;
77361;Laerm;66427;51.798;10.954;2023-03-08T01:35:55;29.50;27.34;37.50;;
77361;Laerm;66427;51.798;10.954;2023-03-08T01:38:21;28.08;26.97;29.71;;
77361;Laerm;66427;51.798;10.954;2023-03-08T01:40:47;28.59;27.37;31.37;;
77361;Laerm;66427;51.798;10.954;2023-03-08T01:43:20;29.09;27.51;35.36;;
77361;Laerm;66427;51.798;10.954;2023-03-08T01:48:32;27.99;27.20;30.90;;
77361;Laerm;66427;51.798;10.954;2023-03-08T01:50:59;28.32;27.31;33.04;;
77361;Laerm;66427;51.798;10.954;2023-03-08T01:53:27;28.35;27.22;34.29;;
77361;Laerm;66427;51.798;10.954;2023-03-08T01:55:52;28.31;27.29;34.82;;
77361;Laerm;66427;51.798;10.954;2023-03-08T01:58:18;28.90;27.35;47.27;;
77361;Laerm;66427;51.798;10.954;2023-03-08T02:00:45;28.52;27.47;33.05;;
77361;Laerm;66427;51.798;10.954;2023-03-08T02:03:11;28.29;27.30;30.92;;
77361;Laerm;66427;51.798;10.954;2023-03-08T02:05:38;29.06;27.37;33.06;;
77361;Laerm;66427;51.798;10.954;2023-03-08T02:08:05;28.60;27.50;30.72;;
77361;Laerm;66427;51.798;10.954;2023-03-08T02:10:31;29.38;27.28;38.57;;
77361;Laerm;66427;51.798;10.954;2023-03-08T02:12:57;29.28;27.41;39.81;;
77361;Laerm;66427;51.798;10.954;2023-03-08T02:15:23;29.87;27.67;33.67;;
77361;Laerm;66427;51.798;10.954;2023-03-08T02:17:48;28.82;27.49;40.45;;
77361;Laerm;66427;51.798;10.954;2023-03-08T02:20:20;28.45;27.51;30.64;;
77361;Laerm;66427;51.798;10.954;2023-03-08T02:22:47;30.03;28.27;35.93;;
77361;Laerm;66427;51.798;10.954;2023-03-08T02:25:21;29.35;28.02;34.56;;
77361;Laerm;66427;51.798;10.954;2023-03-08T02:27:47;31.01;28.71;38.58;;
77361;Laerm;66427;51.798;10.954;2023-03-08T02:30:14;32.23;29.48;36.70;;
77361;Laerm;66427;51.798;10.954;2023-03-08T02:32:40;44.18;29.02;60.76;;
77361;Laerm;66427;51.798;10.954;2023-03-08T02:35:05;31.39;27.90;44.51;;
77361;Laerm;66427;51.798;10.954;2023-03-08T02:37:32;29.11;28.00;32.00;;
77361;Laerm;66427;51.798;10.954;2023-03-08T02:39:57;30.26;28.14;40.80;;
77361;Laerm;66427;51.798;10.954;2023-03-08T02:42:23;31.08;28.17;50.63;;
77361;Laerm;66427;51.798;10.954;2023-03-08T02:44:49;29.46;28.31;31.93;;
77361;Laerm;66427;51.798;10.954;2023-03-08T02:47:15;29.54;27.93;41.89;;
77361;Laerm;66427;51.798;10.954;2023-03-08T02:49:41;30.11;27.91;36.40;;
77361;Laerm;66427;51.798;10.954;2023-03-08T02:52:06;29.96;28.20;38.70;;
77361;Laerm;66427;51.798;10.954;2023-03-08T02:54:32;29.89;28.52;40.37;;
77361;Laerm;66427;51.798;10.954;2023-03-08T02:56:58;29.52;27.77;34.99;;
77361;Laerm;66427;51.798;10.954;2023-03-08T02:59:24;30.21;28.22;40.11;;
77361;Laerm;66427;51.798;10.954;2023-03-08T03:01:51;32.44;29.75;43.45;;
77361;Laerm;66427;51.798;10.954;2023-03-08T03:04:16;35.64;30.55;48.81;;
77361;Laerm;66427;51.798;10.954;2023-03-08T03:06:42;51.70;29.75;68.51;;
77361;Laerm;66427;51.798;10.954;2023-03-08T03:09:08;30.98;29.49;34.59;;
77361;Laerm;66427;51.798;10.954;2023-03-08T03:11:34;30.87;28.34;36.18;;
77361;Laerm;66427;51.798;10.954;2023-03-08T03:14:00;32.24;29.67;45.47;;
77361;Laerm;66427;51.798;10.954;2023-03-08T03:16:26;30.55;28.71;36.67;;
77361;Laerm;66427;51.798;10.954;2023-03-08T03:18:53;30.05;28.69;34.74;;
77361;Laerm;66427;51.798;10.954;2023-03-08T03:21:22;32.02;28.47;54.30;;
77361;Laerm;66427;51.798;10.954;2023-03-08T03:23:48;31.97;28.65;38.90;;
77361;Laerm;66427;51.798;10.954;2023-03-08T03:26:15;30.76;28.68;41.81;;
77361;Laerm;66427;51.798;10.954;2023-03-08T03:28:41;31.19;28.12;39.42;;
77361;Laerm;66427;51.798;10.954;2023-03-08T03:31:08;30.23;28.25;38.30;;
77361;Laerm;66427;51.798;10.954;2023-03-08T03:33:34;32.63;29.71;41.91;;
77361;Laerm;66427;51.798;10.954;2023-03-08T03:36:00;31.88;29.29;38.43;;
77361;Laerm;66427;51.798;10.954;2023-03-08T03:38:26;31.88;29.24;36.91;;
77361;Laerm;66427;51.798;10.954;2023-03-08T03:40:59;34.25;30.48;42.94;;
77361;Laerm;66427;51.798;10.954;2023-03-08T03:43:24;36.87;31.15;56.07;;
77361;Laerm;66427;51.798;10.954;2023-03-08T03:45:54;46.55;33.60;61.06;;
77361;Laerm;66427;51.798;10.954;2023-03-08T03:48:21;34.03;29.72;48.29;;
77361;Laerm;66427;51.798;10.954;2023-03-08T03:50:53;33.65;30.34;39.52;;
77361;Laerm;66427;51.798;10.954;2023-03-08T03:53:18;34.42;31.56;41.00;;
77361;Laerm;66427;51.798;10.954;2023-03-08T03:55:44;33.07;30.26;51.68;;
77361;Laerm;66427;51.798;10.954;2023-03-08T03:58:10;33.63;30.66;40.88;;
77361;Laerm;66427;51.798;10.954;2023-03-08T04:00:36;34.54;30.40;44.93;;
77361;Laerm;66427;51.798;10.954;2023-03-08T04:03:01;44.11;30.11;70.12;;
77361;Laerm;66427;51.798;10.954;2023-03-08T04:05:27;36.12;30.52;46.54;;
77361;Laerm;66427;51.798;10.954;2023-03-08T04:07:53;37.37;30.68;49.16;;
77361;Laerm;66427;51.798;10.954;2023-03-08T04:10:19;35.24;29.79;50.24;;
77361;Laerm;66427;51.798;10.954;2023-03-08T04:12:47;38.11;29.55;53.40;;
77361;Laerm;66427;51.798;10.954;2023-03-08T04:15:12;38.39;29.75;50.04;;
77361;Laerm;66427;51.798;10.954;2023-03-08T04:17:38;49.19;31.13;64.74;;
77361;Laerm;66427;51.798;10.954;2023-03-08T04:20:04;47.01;29.85;61.26;;
77361;Laerm;66427;51.798;10.954;2023-03-08T04:22:30;34.65;31.96;42.03;;
77361;Laerm;66427;51.798;10.954;2023-03-08T04:24:56;36.20;31.59;53.67;;
77361;Laerm;66427;51.798;10.954;2023-03-08T04:27:21;49.57;33.11;65.52;;
77361;Laerm;66427;51.798;10.954;2023-03-08T04:29:47;36.76;31.41;48.44;;
77361;Laerm;66427;51.798;10.954;2023-03-08T04:32:13;52.59;31.53;65.53;;
77361;Laerm;66427;51.798;10.954;2023-03-08T04:34:39;49.52;32.06;66.01;;
77361;Laerm;66427;51.798;10.954;2023-03-08T04:37:07;38.41;32.74;52.38;;
77361;Laerm;66427;51.798;10.954;2023-03-08T04:39:33;49.60;31.15;63.14;;
77361;Laerm;66427;51.798;10.954;2023-03-08T04:41:59;37.00;31.26;53.52;;
77361;Laerm;66427;51.798;10.954;2023-03-08T04:44:24;48.24;31.05;63.83;;
77361;Laerm;66427;51.798;10.954;2023-03-08T04:46:50;35.09;31.04;44.77;;
77361;Laerm;66427;51.798;10.954;2023-03-08T04:49:16;36.17;33.17;47.62;;
77361;Laerm;66427;51.798;10.954;2023-03-08T04:51:42;36.91;32.80;48.63;;
77361;Laerm;66427;51.798;10.954;2023-03-08T04:54:07;50.85;32.97;67.48;;
77361;Laerm;66427;51.798;10.954;2023-03-08T04:56:33;47.49;34.29;58.84;;
77361;Laerm;66427;51.798;10.954;2023-03-08T04:58:59;55.66;41.30;70.65;;
77361;Laerm;66427;51.798;10.954;2023-03-08T05:01:25;55.47;33.80;67.40;;
77361;Laerm;66427;51.798;10.954;2023-03-08T05:03:51;48.79;33.45;64.05;;
77361;Laerm;66427;51.798;10.954;2023-03-08T05:06:17;37.58;32.59;48.56;;
77361;Laerm;66427;51.798;10.954;2023-03-08T05:08:43;34.82;31.87;40.21;;
77361;Laerm;66427;51.798;10.954;2023-03-08T05:11:09;35.54;32.19;43.27;;
77361;Laerm;66427;51.798;10.954;2023-03-08T05:13:40;58.17;33.96;71.68;;
77361;Laerm;66427;51.798;10.954;2023-03-08T05:16:06;52.45;34.99;65.72;;
77361;Laerm;66427;51.798;10.954;2023-03-08T05:18:32;46.15;33.63;62.17;;
77361;Laerm;66427;51.798;10.954;2023-03-08T05:21:03;51.13;33.60;66.76;;
77361;Laerm;66427;51.798;10.954;2023-03-08T05:23:29;52.80;33.79;66.92;;
77361;Laerm;66427;51.798;10.954;2023-03-08T05:25:57;51.65;32.99;65.92;;
77361;Laerm;66427;51.798;10.954;2023-03-08T05:28:24;50.73;32.33;65.27;;
77361;Laerm;66427;51.798;10.954;2023-03-08T05:30:58;54.83;34.23;69.29;;
77361;Laerm;66427;51.798;10.954;2023-03-08T05:33:24;53.86;36.17;67.26;;
77361;Laerm;66427;51.798;10.954;2023-03-08T05:35:52;54.61;35.18;69.67;;
77361;Laerm;66427;51.798;10.954;2023-03-08T05:38:19;50.82;35.05;64.74;;
77361;Laerm;66427;51.798;10.954;2023-03-08T05:40:45;57.73;38.93;67.42;;
77361;Laerm;66427;51.798;10.954;2023-03-08T05:43:11;53.47;36.08;65.01;;
77361;Laerm;66427;51.798;10.954;2023-03-08T05:45:37;52.53;36.66;66.69;;
77361;Laerm;66427;51.798;10.954;2023-03-08T05:48:03;55.44;38.01;68.86;;
77361;Laerm;66427;51.798;10.954;2023-03-08T05:50:28;67.48;38.08;82.91;;
77361;Laerm;66427;51.798;10.954;2023-03-08T05:52:54;53.31;38.74;63.77;;
77361;Laerm;66427;51.798;10.954;2023-03-08T05:55:20;53.86;36.32;68.25;;
77361;Laerm;66427;51.798;10.954;2023-03-08T05:57:47;56.14;37.86;68.22;;
77361;Laerm;66427;51.798;10.954;2023-03-08T06:00:13;56.95;35.70;69.53;;
77361;Laerm;66427;51.798;10.954;2023-03-08T06:02:39;55.86;38.92;64.96;;
77361;Laerm;66427;51.798;10.954;2023-03-08T06:05:06;57.89;37.39;72.84;;
77361;Laerm;66427;51.798;10.954;2023-03-08T06:07:33;57.79;36.31;69.03;;
77361;Laerm;66427;51.798;10.954;2023-03-08T06:09:59;62.70;36.48;80.08;;
77361;Laerm;66427;51.798;10.954;2023-03-08T06:12:25;50.61;37.42;62.66;;
77361;Laerm;66427;51.798;10.954;2023-03-08T06:14:51;61.00;37.68;75.38;;
77361;Laerm;66427;51.798;10.954;2023-03-08T06:17:17;55.17;38.10;67.70;;
77361;Laerm;66427;51.798;10.954;2023-03-08T06:19:45;58.03;36.64;72.12;;
77361;Laerm;66427;51.798;10.954;2023-03-08T06:22:11;56.44;37.06;67.53;;
77361;Laerm;66427;51.798;10.954;2023-03-08T06:24:37;54.41;38.09;69.13;;
77361;Laerm;66427;51.798;10.954;2023-03-08T06:27:03;59.85;42.20;72.42;;
77361;Laerm;66427;51.798;10.954;2023-03-08T06:29:29;58.53;47.65;68.69;;
77361;Laerm;66427;51.798;10.954;2023-03-08T06:31:55;62.90;37.51;75.28;;
77361;Laerm;66427;51.798;10.954;2023-03-08T06:34:22;60.60;42.15;72.90;;
77361;Laerm;66427;51.798;10.954;2023-03-08T06:36:48;59.10;38.86;72.82;;
77361;Laerm;66427;51.798;10.954;2023-03-08T06:39:16;58.35;37.28;68.51;;
77361;Laerm;66427;51.798;10.954;2023-03-08T06:41:45;55.60;38.51;66.81;;
77361;Laerm;66427;51.798;10.954;2023-03-08T06:44:11;47.75;36.63;62.65;;
77361;Laerm;66427;51.798;10.954;2023-03-08T06:46:37;55.82;37.06;71.92;;
77361;Laerm;66427;51.798;10.954;2023-03-08T06:49:03;53.31;36.35;67.47;;
77361;Laerm;66427;51.798;10.954;2023-03-08T06:51:32;62.98;35.47;78.92;;
77361;Laerm;66427;51.798;10.954;2023-03-08T06:53:58;50.61;37.01;65.60;;
77361;Laerm;66427;51.798;10.954;2023-03-08T06:56:23;53.93;37.19;66.35;;
77361;Laerm;66427;51.798;10.954;2023-03-08T06:58:52;57.03;38.21;66.55;;
77361;Laerm;66427;51.798;10.954;2023-03-08T07:01:18;62.02;41.06;78.27;;
77361;Laerm;66427;51.798;10.954;2023-03-08T07:03:44;56.71;37.82;67.20;;
77361;Laerm;66427;51.798;10.954;2023-03-08T07:06:12;56.97;36.19;68.41;;
77361;Laerm;66427;51.798;10.954;2023-03-08T07:08:38;58.06;37.66;70.12;;
77361;Laerm;66427;51.798;10.954;2023-03-08T07:11:05;52.31;35.30;68.56;;
77361;Laerm;66427;51.798;10.954;2023-03-08T07:13:31;38.68;35.26;46.92;;
77361;Laerm;66427;51.798;10.954;2023-03-08T07:15:57;52.08;34.63;67.41;;
77361;Laerm;66427;51.798;10.954;2023-03-08T07:18:23;55.94;35.29;71.77;;
77361;Laerm;66427;51.798;10.954;2023-03-08T07:20:54;56.36;36.11;68.28;;
77361;Laerm;66427;51.798;10.954;2023-03-08T07:23:20;60.16;36.94;71.85;;
77361;Laerm;66427;51.798;10.954;2023-03-08T07:25:46;56.05;37.74;70.72;;
77361;Laerm;66427;51.798;10.954;2023-03-08T07:28:12;59.91;40.03;70.66;;
77361;Laerm;66427;51.798;10.954;2023-03-08T07:30:37;57.79;35.75;72.83;;
77361;Laerm;66427;51.798;10.954;2023-03-08T07:33:03;62.67;35.99;78.85;;
77361;Laerm;66427;51.798;10.954;2023-03-08T07:35:29;58.03;37.73;72.03;;
77361;Laerm;66427;51.798;10.954;2023-03-08T07:37:55;56.45;36.77;69.46;;
77361;Laerm;66427;51.798;10.954;2023-03-08T07:40:20;55.53;35.57;68.31;;
77361;Laerm;66427;51.798;10.954;2023-03-08T07:42:47;58.05;37.04;70.00;;
77361;Laerm;66427;51.798;10.954;2023-03-08T07:45:13;60.43;39.24;71.47;;
77361;Laerm;66427;51.798;10.954;2023-03-08T07:47:39;56.21;37.67;71.91;;
77361;Laerm;66427;51.798;10.954;2023-03-08T07:50:05;54.54;36.46;67.63;;
77361;Laerm;66427;51.798;10.954;2023-03-08T07:52:31;58.58;35.42;69.02;;
77361;Laerm;66427;51.798;10.954;2023-03-08T07:54:57;61.57;34.26;83.23;;
77361;Laerm;66427;51.798;10.954;2023-03-08T07:57:23;54.71;36.35;66.54;;
77361;Laerm;66427;51.798;10.954;2023-03-08T07:59:49;59.37;38.78;70.58;;
77361;Laerm;66427;51.798;10.954;2023-03-08T08:02:15;55.67;38.09;68.16;;
77361;Laerm;66427;51.798;10.954;2023-03-08T08:04:41;53.57;37.15;66.15;;
77361;Laerm;66427;51.798;10.954;2023-03-08T08:07:11;61.31;38.36;73.27;;
77361;Laerm;66427;51.798;10.954;2023-03-08T08:09:37;48.87;35.74;60.44;;
77361;Laerm;66427;51.798;10.954;2023-03-08T08:12:04;50.64;34.76;67.08;;
77361;Laerm;66427;51.798;10.954;2023-03-08T08:14:30;59.72;38.43;73.43;;
77361;Laerm;66427;51.798;10.954;2023-03-08T08:16:56;60.24;35.75;72.24;;
77361;Laerm;66427;51.798;10.954;2023-03-08T08:19:23;57.77;35.47;66.76;;
77361;Laerm;66427;51.798;10.954;2023-03-08T08:21:49;58.59;36.25;74.41;;
77361;Laerm;66427;51.798;10.954;2023-03-08T08:24:15;57.71;36.43;71.92;;
77361;Laerm;66427;51.798;10.954;2023-03-08T08:26:41;57.39;39.83;68.58;;
77361;Laerm;66427;51.798;10.954;2023-03-08T08:29:07;59.00;36.91;71.64;;
77361;Laerm;66427;51.798;10.954;2023-03-08T08:31:33;54.43;35.61;70.76;;
77361;Laerm;66427;51.798;10.954;2023-03-08T08:33:59;58.45;38.36;73.55;;
77361;Laerm;66427;51.798;10.954;2023-03-08T08:36:25;57.34;36.84;68.24;;
77361;Laerm;66427;51.798;10.954;2023-03-08T08:38:51;50.73;34.61;66.61;;
77361;Laerm;66427;51.798;10.954;2023-03-08T08:41:18;53.20;37.22;70.57;;
77361;Laerm;66427;51.798;10.954;2023-03-08T08:43:45;61.21;35.77;76.97;;
77361;Laerm;66427;51.798;10.954;2023-03-08T08:46:11;57.20;38.54;69.00;;
77361;Laerm;66427;51.798;10.954;2023-03-08T08:48:37;56.02;37.07;68.41;;
77361;Laerm;66427;51.798;10.954;2023-03-08T08:51:03;54.60;40.98;65.98;;
77361;Laerm;66427;51.798;10.954;2023-03-08T08:53:30;54.38;37.27;69.09;;
77361;Laerm;66427;51.798;10.954;2023-03-08T08:55:56;56.01;36.20;69.67;;
77361;Laerm;66427;51.798;10.954;2023-03-08T08:58:22;57.82;36.41;71.48;;
77361;Laerm;66427;51.798;10.954;2023-03-08T09:00:48;51.29;36.45;75.84;;
77361;Laerm;66427;51.798;10.954;2023-03-08T09:03:14;57.52;39.12;69.59;;
77361;Laerm;66427;51.798;10.954;2023-03-08T09:05:40;57.27;36.79;73.19;;
77361;Laerm;66427;51.798;10.954;2023-03-08T09:08:07;57.41;35.05;69.74;;
77361;Laerm;66427;51.798;10.954;2023-03-08T09:10:33;66.89;41.41;85.71;;
77361;Laerm;66427;51.798;10.954;2023-03-08T09:13:00;51.95;36.01;65.95;;
77361;Laerm;66427;51.798;10.954;2023-03-08T09:15:26;55.89;35.39;66.34;;
77361;Laerm;66427;51.798;10.954;2023-03-08T09:17:52;57.85;37.67;70.13;;
77361;Laerm;66427;51.798;10.954;2023-03-08T09:20:18;53.55;36.89;66.35;;
77361;Laerm;66427;51.798;10.954;2023-03-08T09:22:44;56.31;37.91;65.75;;
77361;Laerm;66427;51.798;10.954;2023-03-08T09:25:10;63.03;37.18;79.00;;
77361;Laerm;66427;51.798;10.954;2023-03-08T09:27:37;52.86;37.48;65.69;;
77361;Laerm;66427;51.798;10.954;2023-03-08T09:30:04;54.68;35.46;67.31;;
77361;Laerm;66427;51.798;10.954;2023-03-08T09:32:33;55.75;37.17;67.08;;
77361;Laerm;66427;51.798;10.954;2023-03-08T09:34:59;56.33;37.14;70.75;;
77361;Laerm;66427;51.798;10.954;2023-03-08T09:37:25;53.43;37.87;66.80;;
77361;Laerm;66427;51.798;10.954;2023-03-08T09:39:51;61.49;41.08;79.81;;
77361;Laerm;66427;51.798;10.954;2023-03-08T09:42:18;56.52;40.12;69.22;;
77361;Laerm;66427;51.798;10.954;2023-03-08T09:44:50;49.04;39.11;62.89;;
77361;Laerm;66427;51.798;10.954;2023-03-08T09:49:46;53.27;37.47;66.45;;
77361;Laerm;66427;51.798;10.954;2023-03-08T09:52:16;56.38;38.10;66.11;;
77361;Laerm;66427;51.798;10.954;2023-03-08T09:54:45;57.32;39.66;70.29;;
77361;Laerm;66427;51.798;10.954;2023-03-08T09:57:34;55.90;38.75;67.82;;
77361;Laerm;66427;51.798;10.954;2023-03-08T10:00:02;53.33;37.77;68.23;;
77361;Laerm;66427;51.798;10.954;2023-03-08T10:07:54;56.28;38.12;68.45;;
77361;Laerm;66427;51.798;10.954;2023-03-08T10:13:03;52.07;36.81;65.64;;
77361;Laerm;66427;51.798;10.954;2023-03-08T10:15:31;54.37;35.33;66.62;;
77361;Laerm;66427;51.798;10.954;2023-03-08T10:18:02;56.51;36.47;66.30;;
77361;Laerm;66427;51.798;10.954;2023-03-08T10:20:31;58.01;43.88;67.97;;
77361;Laerm;66427;51.798;10.954;2023-03-08T10:23:00;58.28;38.74;75.90;;
77361;Laerm;66427;51.798;10.954;2023-03-08T10:25:28;62.79;35.59;79.88;;
77361;Laerm;66427;51.798;10.954;2023-03-08T10:27:56;58.31;35.43;72.42;;
77361;Laerm;66427;51.798;10.954;2023-03-08T10:30:25;57.75;35.75;69.53;;
77361;Laerm;66427;51.798;10.954;2023-03-08T10:32:53;51.75;35.65;63.63;;
77361;Laerm;66427;51.798;10.954;2023-03-08T10:35:29;59.52;38.37;72.77;;
77361;Laerm;66427;51.798;10.954;2023-03-08T10:37:55;54.12;35.95;67.60;;
77361;Laerm;66427;51.798;10.954;2023-03-08T10:40:22;58.36;36.19;67.55;;
77361;Laerm;66427;51.798;10.954;2023-03-08T10:42:50;56.79;35.52;71.00;;
77361;Laerm;66427;51.798;10.954;2023-03-08T10:45:18;58.04;39.58;67.89;;
77361;Laerm;66427;51.798;10.954;2023-03-08T10:47:53;54.37;37.49;67.80;;
77361;Laerm;66427;51.798;10.954;2023-03-08T10:50:21;58.31;38.02;71.02;;
77361;Laerm;66427;51.798;10.954;2023-03-08T10:52:47;55.53;37.54;71.70;;
77361;Laerm;66427;51.798;10.954;2023-03-08T10:55:17;53.21;35.99;70.78;;
77361;Laerm;66427;51.798;10.954;2023-03-08T10:57:56;54.60;37.77;68.66;;
77361;Laerm;66427;51.798;10.954;2023-03-08T11:02:48;58.93;41.07;76.04;;
77361;Laerm;66427;51.798;10.954;2023-03-08T11:05:16;57.02;41.43;74.72;;
77361;Laerm;66427;51.798;10.954;2023-03-08T11:07:48;56.33;39.04;68.88;;
77361;Laerm;66427;51.798;10.954;2023-03-08T11:10:15;58.41;38.34;75.56;;
77361;Laerm;66427;51.798;10.954;2023-03-08T11:12:42;59.70;36.99;70.22;;
77361;Laerm;66427;51.798;10.954;2023-03-08T11:15:14;52.15;38.09;66.90;;
77361;Laerm;66427;51.798;10.954;2023-03-08T11:17:54;55.29;40.85;67.91;;
77361;Laerm;66427;51.798;10.954;2023-03-08T11:30:57;57.99;38.26;72.26;;
77361;Laerm;66427;51.798;10.954;2023-03-08T11:36:08;58.74;39.04;73.71;;
77361;Laerm;66427;51.798;10.954;2023-03-08T11:38:35;53.32;38.02;69.00;;
77361;Laerm;66427;51.798;10.954;2023-03-08T11:46:18;64.62;40.62;79.44;;
77361;Laerm;66427;51.798;10.954;2023-03-08T11:48:50;60.25;39.29;73.87;;
77361;Laerm;66427;51.798;10.954;2023-03-08T11:53:53;61.90;41.53;75.98;;
77361;Laerm;66427;51.798;10.954;2023-03-08T11:59:04;59.61;39.04;76.76;;
77361;Laerm;66427;51.798;10.954;2023-03-08T12:02:14;63.53;44.70;77.46;;
77361;Laerm;66427;51.798;10.954;2023-03-08T12:04:25;64.33;44.27;76.94;;
77361;Laerm;66427;51.798;10.954;2023-03-08T12:06:51;59.04;40.15;71.48;;
77361;Laerm;66427;51.798;10.954;2023-03-08T12:11:52;60.37;41.15;72.48;;
77361;Laerm;66427;51.798;10.954;2023-03-08T12:14:24;60.37;41.74;72.07;;
77361;Laerm;66427;51.798;10.954;2023-03-08T12:19:42;57.32;39.54;72.84;;
77361;Laerm;66427;51.798;10.954;2023-03-08T12:22:23;61.79;39.92;75.30;;
77361;Laerm;66427;51.798;10.954;2023-03-08T12:25:00;59.94;39.70;75.74;;
77361;Laerm;66427;51.798;10.954;2023-03-08T12:32:49;59.65;40.43;76.77;;
77361;Laerm;66427;51.798;10.954;2023-03-08T12:35:23;59.52;39.76;72.28;;
77361;Laerm;66427;51.798;10.954;2023-03-08T12:38:02;62.74;44.14;75.34;;
77361;Laerm;66427;51.798;10.954;2023-03-08T12:43:08;62.47;38.46;76.12;;
77361;Laerm;66427;51.798;10.954;2023-03-08T12:45:34;64.93;41.38;77.77;;
77361;Laerm;66427;51.798;10.954;2023-03-08T12:50:29;59.22;40.17;71.05;;
77361;Laerm;66427;51.798;10.954;2023-03-08T12:52:55;57.10;41.23;73.33;;
77361;Laerm;66427;51.798;10.954;2023-03-08T12:55:26;59.36;41.74;71.31;;
77361;Laerm;66427;51.798;10.954;2023-03-08T12:57:59;54.55;37.53;71.18;;
77361;Laerm;66427;51.798;10.954;2023-03-08T13:00:35;59.29;39.14;73.06;;
77361;Laerm;66427;51.798;10.954;2023-03-08T13:05:37;42.33;38.18;47.69;;
77361;Laerm;66427;51.798;10.954;2023-03-08T13:10:39;45.91;39.34;63.67;;
77361;Laerm;66427;51.798;10.954;2023-03-08T13:15:30;56.61;39.84;70.96;;
77361;Laerm;66427;51.798;10.954;2023-03-08T13:17:58;61.09;42.06;73.35;;
77361;Laerm;66427;51.798;10.954;2023-03-08T13:20:32;58.11;40.15;73.17;;
77361;Laerm;66427;51.798;10.954;2023-03-08T13:23:10;51.94;38.77;69.98;;
77361;Laerm;66427;51.798;10.954;2023-03-08T13:28:13;56.14;38.71;72.72;;
77361;Laerm;66427;51.798;10.954;2023-03-08T13:30:50;57.00;40.71;70.56;;
77361;Laerm;66427;51.798;10.954;2023-03-08T13:33:21;60.74;41.32;72.45;;
77361;Laerm;66427;51.798;10.954;2023-03-08T13:38:59;56.38;43.33;68.43;;
77361;Laerm;66427;51.798;10.954;2023-03-08T13:41:31;59.28;44.39;69.49;;
77361;Laerm;66427;51.798;10.954;2023-03-08T13:44:01;62.57;41.69;72.12;;
77361;Laerm;66427;51.798;10.954;2023-03-08T13:46:27;56.81;40.81;69.28;;
77361;Laerm;66427;51.798;10.954;2023-03-08T13:48:53;55.13;43.01;66.29;;
77361;Laerm;66427;51.798;10.954;2023-03-08T13:51:20;53.53;40.22;67.39;;
77361;Laerm;66427;51.798;10.954;2023-03-08T13:53:49;58.09;41.80;71.16;;
77361;Laerm;66427;51.798;10.954;2023-03-08T13:56:19;54.39;38.40;68.11;;
77361;Laerm;66427;51.798;10.954;2023-03-08T13:58:46;61.11;40.08;86.94;;
77361;Laerm;66427;51.798;10.954;2023-03-08T14:01:18;58.61;40.42;71.81;;
77361;Laerm;66427;51.798;10.954;2023-03-08T14:03:44;56.71;40.94;68.21;;
77361;Laerm;66427;51.798;10.954;2023-03-08T14:08:44;60.04;45.11;71.87;;
77361;Laerm;66427;51.798;10.954;2023-03-08T14:11:15;57.81;41.46;72.88;;
77361;Laerm;66427;51.798;10.954;2023-03-08T14:13:44;59.66;42.75;78.90;;
77361;Laerm;66427;51.798;10.954;2023-03-08T14:16:22;57.28;43.76;70.44;;
77361;Laerm;66427;51.798;10.954;2023-03-08T14:18:48;57.20;39.85;68.78;;
77361;Laerm;66427;51.798;10.954;2023-03-08T14:21:21;60.84;41.95;73.08;;
77361;Laerm;66427;51.798;10.954;2023-03-08T14:23:48;61.23;41.60;72.15;;
77361;Laerm;66427;51.798;10.954;2023-03-08T14:26:21;57.30;41.56;70.40;;
77361;Laerm;66427;51.798;10.954;2023-03-08T14:28:47;60.00;41.82;72.29;;
77361;Laerm;66427;51.798;10.954;2023-03-08T14:31:27;57.90;42.77;69.11;;
77361;Laerm;66427;51.798;10.954;2023-03-08T14:33:54;60.40;44.60;72.56;;
77361;Laerm;66427;51.798;10.954;2023-03-08T14:36:20;60.87;42.00;73.78;;
77361;Laerm;66427;51.798;10.954;2023-03-08T14:38:46;52.84;42.09;65.85;;
77361;Laerm;66427;51.798;10.954;2023-03-08T14:41:13;60.21;42.26;70.18;;
77361;Laerm;66427;51.798;10.954;2023-03-08T14:43:40;56.79;44.10;67.82;;